sensor_id;sensor_type;location;lat;lon;timestamp;temperature;humidity
2657;DHT22;1338;48.176;11.792;2023-02-22T00:02:12;2.30;1.00
2657;DHT22;1338;48.176;11.792;2023-02-22T00:04:53;2.50;1.00
2657;DHT22;1338;48.176;11.792;2023-02-22T00:07:22;2.50;1.00
2657;DHT22;1338;48.176;11.792;2023-02-22T00:09:52;2.40;1.00
2657;DHT22;1338;48.176;11.792;2023-02-22T00:12:20;2.30;1.00
2657;DHT22;1338;48.176;11.792;2023-02-22T00:14:49;2.30;1.00
2657;DHT22;1338;48.176;11.792;2023-02-22T00:17:20;2.20;1.00
2657;DHT22;1338;48.176;11.792;2023-02-22T00:19:49;2.20;1.00
2657;DHT22;1338;48.176;11.792;2023-02-22T00:22:17;2.10;1.00
2657;DHT22;1338;48.176;11.792;2023-02-22T00:24:46;2.00;1.00
2657;DHT22;1338;48.176;11.792;2023-02-22T00:27:16;2.10;1.00
2657;DHT22;1338;48.176;11.792;2023-02-22T00:29:45;2.10;1.00
2657;DHT22;1338;48.176;11.792;2023-02-22T00:32:14;1.90;1.00
2657;DHT22;1338;48.176;11.792;2023-02-22T00:34:44;1.80;1.00
2657;DHT22;1338;48.176;11.792;2023-02-22T00:37:13;1.70;1.00
2657;DHT22;1338;48.176;11.792;2023-02-22T00:39:45;1.70;1.00
2657;DHT22;1338;48.176;11.792;2023-02-22T00:42:15;1.70;1.00
2657;DHT22;1338;48.176;11.792;2023-02-22T00:44:45;1.60;1.00
2657;DHT22;1338;48.176;11.792;2023-02-22T00:47:14;1.60;1.00
2657;DHT22;1338;48.176;11.792;2023-02-22T00:49:45;1.60;1.00
2657;DHT22;1338;48.176;11.792;2023-02-22T00:52:14;1.70;1.00
2657;DHT22;1338;48.176;11.792;2023-02-22T00:54:43;1.80;1.00
2657;DHT22;1338;48.176;11.792;2023-02-22T00:57:12;1.90;1.00
2657;DHT22;1338;48.176;11.792;2023-02-22T00:59:44;2.10;1.00
2657;DHT22;1338;48.176;11.792;2023-02-22T01:02:13;2.30;1.00
2657;DHT22;1338;48.176;11.792;2023-02-22T01:04:44;2.50;1.00
2657;DHT22;1338;48.176;11.792;2023-02-22T01:07:13;2.60;1.00
2657;DHT22;1338;48.176;11.792;2023-02-22T01:09:42;2.80;1.00
2657;DHT22;1338;48.176;11.792;2023-02-22T01:12:11;3.30;1.00
2657;DHT22;1338;48.176;11.792;2023-02-22T01:14:40;3.90;1.00
2657;DHT22;1338;48.176;11.792;2023-02-22T01:17:10;3.80;99.90
2657;DHT22;1338;48.176;11.792;2023-02-22T01:19:39;3.70;99.90
2657;DHT22;1338;48.176;11.792;2023-02-22T01:22:10;3.80;99.90
2657;DHT22;1338;48.176;11.792;2023-02-22T01:24:38;3.80;99.90
2657;DHT22;1338;48.176;11.792;2023-02-22T01:27:07;4.00;99.90
2657;DHT22;1338;48.176;11.792;2023-02-22T01:29:37;4.10;99.90
2657;DHT22;1338;48.176;11.792;2023-02-22T01:32:06;4.10;99.90
2657;DHT22;1338;48.176;11.792;2023-02-22T01:34:35;4.10;99.90
2657;DHT22;1338;48.176;11.792;2023-02-22T01:37:04;4.00;99.90
2657;DHT22;1338;48.176;11.792;2023-02-22T01:39:35;3.90;99.90
2657;DHT22;1338;48.176;11.792;2023-02-22T01:42:05;3.80;99.90
2657;DHT22;1338;48.176;11.792;2023-02-22T01:44:37;3.80;99.90
2657;DHT22;1338;48.176;11.792;2023-02-22T01:47:07;3.60;99.90
2657;DHT22;1338;48.176;11.792;2023-02-22T01:49:40;3.70;99.90
2657;DHT22;1338;48.176;11.792;2023-02-22T01:52:13;3.60;99.90
2657;DHT22;1338;48.176;11.792;2023-02-22T01:54:48;3.60;99.90
2657;DHT22;1338;48.176;11.792;2023-02-22T01:57:26;3.60;99.90
2657;DHT22;1338;48.176;11.792;2023-02-22T01:59:59;3.60;99.90
2657;DHT22;1338;48.176;11.792;2023-02-22T02:02:43;3.50;99.90
2657;DHT22;1338;48.176;11.792;2023-02-22T02:05:12;3.50;99.90
2657;DHT22;1338;48.176;11.792;2023-02-22T02:07:41;3.50;99.90
2657;DHT22;1338;48.176;11.792;2023-02-22T02:10:14;3.30;99.90
2657;DHT22;1338;48.176;11.792;2023-02-22T02:12:45;3.20;99.90
2657;DHT22;1338;48.176;11.792;2023-02-22T02:15:20;3.00;99.90
2657;DHT22;1338;48.176;11.792;2023-02-22T02:17:52;2.90;99.90
2657;DHT22;1338;48.176;11.792;2023-02-22T02:20:25;2.90;99.90
2657;DHT22;1338;48.176;11.792;2023-02-22T02:22:57;2.90;99.90
2657;DHT22;1338;48.176;11.792;2023-02-22T02:25:49;3.00;99.90
2657;DHT22;1338;48.176;11.792;2023-02-22T02:28:46;3.00;99.90
2657;DHT22;1338;48.176;11.792;2023-02-22T02:34:30;2.90;99.90
2657;DHT22;1338;48.176;11.792;2023-02-22T02:37:05;2.70;99.90
2657;DHT22;1338;48.176;11.792;2023-02-22T02:39:40;2.80;99.90
2657;DHT22;1338;48.176;11.792;2023-02-22T02:42:15;2.90;99.90
2657;DHT22;1338;48.176;11.792;2023-02-22T02:44:48;2.90;99.90
2657;DHT22;1338;48.176;11.792;2023-02-22T02:47:26;2.90;99.90
2657;DHT22;1338;48.176;11.792;2023-02-22T02:50:04;3.00;99.90
2657;DHT22;1338;48.176;11.792;2023-02-22T02:52:36;3.00;99.90
2657;DHT22;1338;48.176;11.792;2023-02-22T02:55:08;2.80;99.90
2657;DHT22;1338;48.176;11.792;2023-02-22T02:57:40;2.70;99.90
2657;DHT22;1338;48.176;11.792;2023-02-22T03:00:09;2.90;99.90
2657;DHT22;1338;48.176;11.792;2023-02-22T03:03:10;2.90;99.90
2657;DHT22;1338;48.176;11.792;2023-02-22T03:06:04;2.90;99.90
2657;DHT22;1338;48.176;11.792;2023-02-22T03:08:40;2.90;99.90
2657;DHT22;1338;48.176;11.792;2023-02-22T03:11:14;2.90;99.90
2657;DHT22;1338;48.176;11.792;2023-02-22T03:13:50;2.90;99.90
2657;DHT22;1338;48.176;11.792;2023-02-22T03:16:31;2.80;99.90
2657;DHT22;1338;48.176;11.792;2023-02-22T03:19:08;2.80;99.90
2657;DHT22;1338;48.176;11.792;2023-02-22T03:21:44;2.70;99.90
2657;DHT22;1338;48.176;11.792;2023-02-22T03:24:18;2.50;99.90
2657;DHT22;1338;48.176;11.792;2023-02-22T03:26:53;2.60;99.90
2657;DHT22;1338;48.176;11.792;2023-02-22T03:29:27;2.60;99.90
2657;DHT22;1338;48.176;11.792;2023-02-22T03:32:07;2.50;99.90
2657;DHT22;1338;48.176;11.792;2023-02-22T03:34:42;2.50;99.90
2657;DHT22;1338;48.176;11.792;2023-02-22T03:37:17;2.50;99.90
2657;DHT22;1338;48.176;11.792;2023-02-22T03:39:51;2.50;99.90
2657;DHT22;1338;48.176;11.792;2023-02-22T03:42:25;2.50;99.90
2657;DHT22;1338;48.176;11.792;2023-02-22T03:44:58;2.50;99.90
2657;DHT22;1338;48.176;11.792;2023-02-22T03:47:31;2.50;99.90
2657;DHT22;1338;48.176;11.792;2023-02-22T03:50:08;2.40;99.90
2657;DHT22;1338;48.176;11.792;2023-02-22T03:52:43;2.30;99.90
2657;DHT22;1338;48.176;11.792;2023-02-22T03:55:21;2.30;99.90
2657;DHT22;1338;48.176;11.792;2023-02-22T03:57:54;1.90;99.90
2657;DHT22;1338;48.176;11.792;2023-02-22T04:00:29;1.60;99.90
2657;DHT22;1338;48.176;11.792;2023-02-22T04:03:00;1.50;99.90
2657;DHT22;1338;48.176;11.792;2023-02-22T04:05:30;1.60;1.00
2657;DHT22;1338;48.176;11.792;2023-02-22T04:08:00;1.60;1.00
2657;DHT22;1338;48.176;11.792;2023-02-22T04:10:30;1.80;99.90
2657;DHT22;1338;48.176;11.792;2023-02-22T04:13:00;1.70;1.00
2657;DHT22;1338;48.176;11.792;2023-02-22T04:15:29;1.70;1.00
2657;DHT22;1338;48.176;11.792;2023-02-22T04:18:03;1.60;1.00
2657;DHT22;1338;48.176;11.792;2023-02-22T04:20:32;1.60;1.00
2657;DHT22;1338;48.176;11.792;2023-02-22T04:23:12;1.50;1.00
2657;DHT22;1338;48.176;11.792;2023-02-22T04:25:40;1.50;1.00
2657;DHT22;1338;48.176;11.792;2023-02-22T04:28:15;1.40;1.00
2657;DHT22;1338;48.176;11.792;2023-02-22T04:31:07;1.40;1.00
2657;DHT22;1338;48.176;11.792;2023-02-22T04:33:38;1.20;1.00
2657;DHT22;1338;48.176;11.792;2023-02-22T04:36:10;1.30;1.00
2657;DHT22;1338;48.176;11.792;2023-02-22T04:38:40;1.20;1.00
2657;DHT22;1338;48.176;11.792;2023-02-22T04:41:09;1.10;1.00
2657;DHT22;1338;48.176;11.792;2023-02-22T04:43:37;1.20;1.00
2657;DHT22;1338;48.176;11.792;2023-02-22T04:46:17;1.20;1.00
2657;DHT22;1338;48.176;11.792;2023-02-22T04:48:46;1.10;1.00
2657;DHT22;1338;48.176;11.792;2023-02-22T04:51:16;1.10;1.00
2657;DHT22;1338;48.176;11.792;2023-02-22T04:54:08;1.20;1.00
2657;DHT22;1338;48.176;11.792;2023-02-22T04:56:40;1.10;1.00
2657;DHT22;1338;48.176;11.792;2023-02-22T04:59:09;1.10;1.00
2657;DHT22;1338;48.176;11.792;2023-02-22T05:01:42;1.10;1.00
2657;DHT22;1338;48.176;11.792;2023-02-22T05:04:10;0.80;1.00
2657;DHT22;1338;48.176;11.792;2023-02-22T05:06:39;0.60;1.00
2657;DHT22;1338;48.176;11.792;2023-02-22T05:09:10;0.70;1.00
2657;DHT22;1338;48.176;11.792;2023-02-22T05:11:38;0.40;1.00
2657;DHT22;1338;48.176;11.792;2023-02-22T05:14:07;0.40;1.00
2657;DHT22;1338;48.176;11.792;2023-02-22T05:16:35;0.30;1.00
2657;DHT22;1338;48.176;11.792;2023-02-22T05:19:03;0.30;1.00
2657;DHT22;1338;48.176;11.792;2023-02-22T05:21:32;0.30;1.00
2657;DHT22;1338;48.176;11.792;2023-02-22T05:24:00;0.30;1.00
2657;DHT22;1338;48.176;11.792;2023-02-22T05:26:29;0.30;1.00
2657;DHT22;1338;48.176;11.792;2023-02-22T05:28:58;0.20;1.00
2657;DHT22;1338;48.176;11.792;2023-02-22T05:31:27;0.00;1.00
2657;DHT22;1338;48.176;11.792;2023-02-22T05:33:55;0.00;1.00
2657;DHT22;1338;48.176;11.792;2023-02-22T05:36:24;0.00;1.00
2657;DHT22;1338;48.176;11.792;2023-02-22T05:38:54;0.00;1.00
2657;DHT22;1338;48.176;11.792;2023-02-22T05:41:22;0.00;1.00
2657;DHT22;1338;48.176;11.792;2023-02-22T05:43:53;0.00;1.00
2657;DHT22;1338;48.176;11.792;2023-02-22T05:46:21;0.00;1.00
2657;DHT22;1338;48.176;11.792;2023-02-22T05:48:50;-0.10;1.00
2657;DHT22;1338;48.176;11.792;2023-02-22T05:51:18;-0.10;1.00
2657;DHT22;1338;48.176;11.792;2023-02-22T05:53:48;0.00;1.00
2657;DHT22;1338;48.176;11.792;2023-02-22T05:56:22;0.10;1.00
2657;DHT22;1338;48.176;11.792;2023-02-22T05:58:53;0.10;1.00
2657;DHT22;1338;48.176;11.792;2023-02-22T06:01:23;0.20;1.00
2657;DHT22;1338;48.176;11.792;2023-02-22T06:03:53;0.10;1.00
2657;DHT22;1338;48.176;11.792;2023-02-22T06:06:22;0.10;1.00
2657;DHT22;1338;48.176;11.792;2023-02-22T06:08:50;0.10;1.00
2657;DHT22;1338;48.176;11.792;2023-02-22T06:11:19;0.30;1.00
2657;DHT22;1338;48.176;11.792;2023-02-22T06:13:49;0.30;1.00
2657;DHT22;1338;48.176;11.792;2023-02-22T06:16:20;0.30;1.00
2657;DHT22;1338;48.176;11.792;2023-02-22T06:18:50;0.40;1.00
2657;DHT22;1338;48.176;11.792;2023-02-22T06:21:18;0.30;1.00
2657;DHT22;1338;48.176;11.792;2023-02-22T06:23:47;0.30;1.00
2657;DHT22;1338;48.176;11.792;2023-02-22T06:26:17;0.30;1.00
2657;DHT22;1338;48.176;11.792;2023-02-22T06:28:46;0.40;1.00
2657;DHT22;1338;48.176;11.792;2023-02-22T06:31:15;0.50;1.00
2657;DHT22;1338;48.176;11.792;2023-02-22T06:33:45;0.60;1.00
2657;DHT22;1338;48.176;11.792;2023-02-22T06:36:14;0.60;1.00
2657;DHT22;1338;48.176;11.792;2023-02-22T06:38:43;0.60;1.00
2657;DHT22;1338;48.176;11.792;2023-02-22T06:41:12;0.70;1.00
2657;DHT22;1338;48.176;11.792;2023-02-22T06:43:46;0.60;1.00
2657;DHT22;1338;48.176;11.792;2023-02-22T06:46:15;0.70;1.00
2657;DHT22;1338;48.176;11.792;2023-02-22T06:48:47;0.70;1.00
2657;DHT22;1338;48.176;11.792;2023-02-22T06:51:18;0.70;1.00
2657;DHT22;1338;48.176;11.792;2023-02-22T06:53:48;0.70;1.00
2657;DHT22;1338;48.176;11.792;2023-02-22T06:56:17;0.90;1.00
2657;DHT22;1338;48.176;11.792;2023-02-22T06:58:46;1.10;1.00
2657;DHT22;1338;48.176;11.792;2023-02-22T07:01:15;1.20;1.00
2657;DHT22;1338;48.176;11.792;2023-02-22T07:03:47;1.30;1.00
2657;DHT22;1338;48.176;11.792;2023-02-22T07:06:16;1.10;1.00
2657;DHT22;1338;48.176;11.792;2023-02-22T07:08:45;1.10;1.00
2657;DHT22;1338;48.176;11.792;2023-02-22T07:11:13;1.10;1.00
2657;DHT22;1338;48.176;11.792;2023-02-22T07:13:42;1.20;1.00
2657;DHT22;1338;48.176;11.792;2023-02-22T07:16:10;1.30;1.00
2657;DHT22;1338;48.176;11.792;2023-02-22T07:18:39;1.50;1.00
2657;DHT22;1338;48.176;11.792;2023-02-22T07:21:09;1.60;1.00
2657;DHT22;1338;48.176;11.792;2023-02-22T07:23:38;1.60;1.00
2657;DHT22;1338;48.176;11.792;2023-02-22T07:26:07;1.80;1.00
2657;DHT22;1338;48.176;11.792;2023-02-22T07:28:37;1.80;1.00
2657;DHT22;1338;48.176;11.792;2023-02-22T07:31:05;2.00;1.00
2657;DHT22;1338;48.176;11.792;2023-02-22T07:33:34;2.40;1.00
2657;DHT22;1338;48.176;11.792;2023-02-22T07:36:03;2.70;1.00
2657;DHT22;1338;48.176;11.792;2023-02-22T07:38:34;2.90;1.00
2657;DHT22;1338;48.176;11.792;2023-02-22T07:41:03;3.10;99.90
2657;DHT22;1338;48.176;11.792;2023-02-22T07:43:33;3.30;99.90
2657;DHT22;1338;48.176;11.792;2023-02-22T07:46:03;3.60;99.90
2657;DHT22;1338;48.176;11.792;2023-02-22T07:48:32;3.80;99.90
2657;DHT22;1338;48.176;11.792;2023-02-22T07:51:01;3.90;99.90
2657;DHT22;1338;48.176;11.792;2023-02-22T07:53:31;4.00;99.90
2657;DHT22;1338;48.176;11.792;2023-02-22T07:56:03;4.10;99.90
2657;DHT22;1338;48.176;11.792;2023-02-22T07:58:35;4.20;99.90
2657;DHT22;1338;48.176;11.792;2023-02-22T08:01:04;4.30;99.90
2657;DHT22;1338;48.176;11.792;2023-02-22T08:03:34;4.40;99.90
2657;DHT22;1338;48.176;11.792;2023-02-22T08:06:06;4.50;99.90
2657;DHT22;1338;48.176;11.792;2023-02-22T08:08:35;4.60;99.90
2657;DHT22;1338;48.176;11.792;2023-02-22T08:11:05;4.70;99.90
2657;DHT22;1338;48.176;11.792;2023-02-22T08:13:35;4.90;99.90
2657;DHT22;1338;48.176;11.792;2023-02-22T08:16:05;5.00;99.90
2657;DHT22;1338;48.176;11.792;2023-02-22T08:18:33;5.10;99.90
2657;DHT22;1338;48.176;11.792;2023-02-22T08:21:04;5.40;99.90
2657;DHT22;1338;48.176;11.792;2023-02-22T08:23:33;5.40;95.70
2657;DHT22;1338;48.176;11.792;2023-02-22T08:26:08;5.60;85.90
2657;DHT22;1338;48.176;11.792;2023-02-22T08:28:43;5.70;71.70
2657;DHT22;1338;48.176;11.792;2023-02-22T08:31:12;5.80;53.00
2657;DHT22;1338;48.176;11.792;2023-02-22T08:33:40;5.80;42.20
2657;DHT22;1338;48.176;11.792;2023-02-22T08:36:11;6.10;22.00
2657;DHT22;1338;48.176;11.792;2023-02-22T08:38:40;6.10;7.20
2657;DHT22;1338;48.176;11.792;2023-02-22T08:41:10;6.20;1.00
2657;DHT22;1338;48.176;11.792;2023-02-22T08:43:39;6.60;1.00
2657;DHT22;1338;48.176;11.792;2023-02-22T08:46:08;6.50;1.00
2657;DHT22;1338;48.176;11.792;2023-02-22T08:48:37;6.50;1.00
2657;DHT22;1338;48.176;11.792;2023-02-22T08:51:05;6.80;1.00
2657;DHT22;1338;48.176;11.792;2023-02-22T08:53:34;7.00;1.00
2657;DHT22;1338;48.176;11.792;2023-02-22T08:56:03;6.80;1.00
2657;DHT22;1338;48.176;11.792;2023-02-22T08:58:33;6.90;1.00
2657;DHT22;1338;48.176;11.792;2023-02-22T09:01:02;7.10;1.00
2657;DHT22;1338;48.176;11.792;2023-02-22T09:03:31;7.40;1.00
2657;DHT22;1338;48.176;11.792;2023-02-22T09:06:00;7.40;1.00
2657;DHT22;1338;48.176;11.792;2023-02-22T09:08:28;7.40;1.00
2657;DHT22;1338;48.176;11.792;2023-02-22T09:10:57;7.60;1.00
2657;DHT22;1338;48.176;11.792;2023-02-22T09:13:25;7.70;1.00
2657;DHT22;1338;48.176;11.792;2023-02-22T09:15:55;7.60;1.00
2657;DHT22;1338;48.176;11.792;2023-02-22T09:18:26;8.00;1.00
2657;DHT22;1338;48.176;11.792;2023-02-22T09:21:09;8.00;1.00
2657;DHT22;1338;48.176;11.792;2023-02-22T09:23:38;8.10;1.00
2657;DHT22;1338;48.176;11.792;2023-02-22T09:26:07;8.10;1.00
2657;DHT22;1338;48.176;11.792;2023-02-22T09:28:36;8.00;1.00
2657;DHT22;1338;48.176;11.792;2023-02-22T09:31:07;8.20;1.00
2657;DHT22;1338;48.176;11.792;2023-02-22T09:33:35;8.40;1.00
2657;DHT22;1338;48.176;11.792;2023-02-22T09:36:05;8.10;1.00
2657;DHT22;1338;48.176;11.792;2023-02-22T09:38:35;7.70;1.00
2657;DHT22;1338;48.176;11.792;2023-02-22T09:41:09;8.40;1.00
2657;DHT22;1338;48.176;11.792;2023-02-22T09:43:44;8.80;1.00
2657;DHT22;1338;48.176;11.792;2023-02-22T09:46:26;8.80;1.00
2657;DHT22;1338;48.176;11.792;2023-02-22T09:49:02;8.70;1.00
2657;DHT22;1338;48.176;11.792;2023-02-22T09:51:37;9.00;1.00
2657;DHT22;1338;48.176;11.792;2023-02-22T09:54:13;8.30;1.00
2657;DHT22;1338;48.176;11.792;2023-02-22T09:56:44;8.70;1.00
2657;DHT22;1338;48.176;11.792;2023-02-22T09:59:19;9.30;1.00
2657;DHT22;1338;48.176;11.792;2023-02-22T10:01:56;8.70;1.00
2657;DHT22;1338;48.176;11.792;2023-02-22T10:04:37;9.10;1.00
2657;DHT22;1338;48.176;11.792;2023-02-22T10:07:16;9.90;1.00
2657;DHT22;1338;48.176;11.792;2023-02-22T10:09:47;9.60;1.00
2657;DHT22;1338;48.176;11.792;2023-02-22T10:12:24;9.20;1.00
2657;DHT22;1338;48.176;11.792;2023-02-22T10:15:35;10.10;1.00
2657;DHT22;1338;48.176;11.792;2023-02-22T10:18:48;10.60;1.00
2657;DHT22;1338;48.176;11.792;2023-02-22T10:21:43;10.50;1.00
2657;DHT22;1338;48.176;11.792;2023-02-22T10:24:29;9.80;1.00
2657;DHT22;1338;48.176;11.792;2023-02-22T10:27:05;10.00;1.00
2657;DHT22;1338;48.176;11.792;2023-02-22T10:29:38;10.10;1.00
2657;DHT22;1338;48.176;11.792;2023-02-22T10:32:12;11.00;1.00
2657;DHT22;1338;48.176;11.792;2023-02-22T10:34:46;11.20;1.00
2657;DHT22;1338;48.176;11.792;2023-02-22T10:37:21;10.50;1.00
2657;DHT22;1338;48.176;11.792;2023-02-22T10:39:55;9.40;1.00
2657;DHT22;1338;48.176;11.792;2023-02-22T10:42:28;10.60;1.00
2657;DHT22;1338;48.176;11.792;2023-02-22T10:44:57;11.70;1.00
2657;DHT22;1338;48.176;11.792;2023-02-22T10:47:26;12.30;1.00
2657;DHT22;1338;48.176;11.792;2023-02-22T10:49:58;11.50;1.00
2657;DHT22;1338;48.176;11.792;2023-02-22T10:52:30;10.70;1.00
2657;DHT22;1338;48.176;11.792;2023-02-22T10:55:01;11.30;1.00
2657;DHT22;1338;48.176;11.792;2023-02-22T10:57:45;11.10;1.00
2657;DHT22;1338;48.176;11.792;2023-02-22T11:00:18;12.50;1.00
2657;DHT22;1338;48.176;11.792;2023-02-22T11:02:51;11.90;1.00
2657;DHT22;1338;48.176;11.792;2023-02-22T11:05:32;12.40;1.00
2657;DHT22;1338;48.176;11.792;2023-02-22T11:08:22;12.30;1.00
2657;DHT22;1338;48.176;11.792;2023-02-22T11:10:54;11.40;1.00
2657;DHT22;1338;48.176;11.792;2023-02-22T11:13:24;11.40;1.00
2657;DHT22;1338;48.176;11.792;2023-02-22T11:15:54;12.60;1.00
2657;DHT22;1338;48.176;11.792;2023-02-22T11:18:26;12.80;1.00
2657;DHT22;1338;48.176;11.792;2023-02-22T11:21:03;12.40;1.00
2657;DHT22;1338;48.176;11.792;2023-02-22T11:23:34;12.50;1.00
2657;DHT22;1338;48.176;11.792;2023-02-22T11:26:07;13.80;1.00
2657;DHT22;1338;48.176;11.792;2023-02-22T11:28:36;14.00;1.00
2657;DHT22;1338;48.176;11.792;2023-02-22T11:31:17;13.20;1.00
2657;DHT22;1338;48.176;11.792;2023-02-22T11:33:50;13.00;1.00
2657;DHT22;1338;48.176;11.792;2023-02-22T11:36:32;12.20;1.00
2657;DHT22;1338;48.176;11.792;2023-02-22T11:39:04;12.00;1.00
2657;DHT22;1338;48.176;11.792;2023-02-22T11:41:37;12.30;1.00
2657;DHT22;1338;48.176;11.792;2023-02-22T11:44:19;13.00;1.00
2657;DHT22;1338;48.176;11.792;2023-02-22T11:46:49;13.40;1.00
2657;DHT22;1338;48.176;11.792;2023-02-22T11:49:23;14.30;1.00
2657;DHT22;1338;48.176;11.792;2023-02-22T11:52:15;14.70;1.00
2657;DHT22;1338;48.176;11.792;2023-02-22T11:54:58;14.40;1.00
2657;DHT22;1338;48.176;11.792;2023-02-22T11:57:38;13.40;1.00
2657;DHT22;1338;48.176;11.792;2023-02-22T12:00:18;14.20;1.00
2657;DHT22;1338;48.176;11.792;2023-02-22T12:03:08;15.20;1.00
2657;DHT22;1338;48.176;11.792;2023-02-22T12:05:53;14.90;1.00
2657;DHT22;1338;48.176;11.792;2023-02-22T12:08:33;13.70;1.00
2657;DHT22;1338;48.176;11.792;2023-02-22T12:11:09;12.90;1.00
2657;DHT22;1338;48.176;11.792;2023-02-22T12:16:40;15.60;1.00
2657;DHT22;1338;48.176;11.792;2023-02-22T12:19:20;14.90;1.00
2657;DHT22;1338;48.176;11.792;2023-02-22T12:21:54;15.90;1.00
2657;DHT22;1338;48.176;11.792;2023-02-22T12:24:28;14.90;1.00
2657;DHT22;1338;48.176;11.792;2023-02-22T12:27:01;15.20;1.00
2657;DHT22;1338;48.176;11.792;2023-02-22T12:29:36;15.40;1.00
2657;DHT22;1338;48.176;11.792;2023-02-22T12:32:10;16.20;1.00
2657;DHT22;1338;48.176;11.792;2023-02-22T12:34:44;16.80;1.00
2657;DHT22;1338;48.176;11.792;2023-02-22T12:37:17;16.20;1.00
2657;DHT22;1338;48.176;11.792;2023-02-22T12:39:57;14.60;1.00
2657;DHT22;1338;48.176;11.792;2023-02-22T12:42:34;15.20;1.00
2657;DHT22;1338;48.176;11.792;2023-02-22T12:45:10;13.90;1.00
2657;DHT22;1338;48.176;11.792;2023-02-22T12:47:48;14.60;1.00
2657;DHT22;1338;48.176;11.792;2023-02-22T12:50:21;14.90;1.00
2657;DHT22;1338;48.176;11.792;2023-02-22T12:52:54;15.20;1.00
2657;DHT22;1338;48.176;11.792;2023-02-22T12:55:30;16.70;1.00
2657;DHT22;1338;48.176;11.792;2023-02-22T12:58:06;16.70;1.00
2657;DHT22;1338;48.176;11.792;2023-02-22T13:00:42;16.70;1.00
2657;DHT22;1338;48.176;11.792;2023-02-22T13:03:26;16.10;1.00
2657;DHT22;1338;48.176;11.792;2023-02-22T13:06:03;16.30;1.00
2657;DHT22;1338;48.176;11.792;2023-02-22T13:08:43;17.50;1.00
2657;DHT22;1338;48.176;11.792;2023-02-22T13:11:20;17.90;1.00
2657;DHT22;1338;48.176;11.792;2023-02-22T13:14:00;18.00;1.00
2657;DHT22;1338;48.176;11.792;2023-02-22T13:16:40;17.70;1.00
2657;DHT22;1338;48.176;11.792;2023-02-22T13:19:24;17.60;1.00
2657;DHT22;1338;48.176;11.792;2023-02-22T13:21:57;16.20;1.00
2657;DHT22;1338;48.176;11.792;2023-02-22T13:24:31;15.10;1.00
2657;DHT22;1338;48.176;11.792;2023-02-22T13:27:10;15.60;1.00
2657;DHT22;1338;48.176;11.792;2023-02-22T13:29:41;15.90;1.00
2657;DHT22;1338;48.176;11.792;2023-02-22T13:32:23;17.60;1.00
2657;DHT22;1338;48.176;11.792;2023-02-22T13:35:14;18.00;1.00
2657;DHT22;1338;48.176;11.792;2023-02-22T13:38:00;17.00;1.00
2657;DHT22;1338;48.176;11.792;2023-02-22T13:41:03;15.60;1.00
2657;DHT22;1338;48.176;11.792;2023-02-22T13:43:55;17.00;1.00
2657;DHT22;1338;48.176;11.792;2023-02-22T13:46:40;17.30;1.00
2657;DHT22;1338;48.176;11.792;2023-02-22T13:49:28;17.50;1.00
2657;DHT22;1338;48.176;11.792;2023-02-22T13:52:05;16.40;1.00
2657;DHT22;1338;48.176;11.792;2023-02-22T13:54:39;16.80;1.00
2657;DHT22;1338;48.176;11.792;2023-02-22T13:57:20;17.20;1.00
2657;DHT22;1338;48.176;11.792;2023-02-22T14:00:32;17.20;1.00
2657;DHT22;1338;48.176;11.792;2023-02-22T14:03:09;16.90;1.00
2657;DHT22;1338;48.176;11.792;2023-02-22T14:08:43;15.90;1.00
2657;DHT22;1338;48.176;11.792;2023-02-22T14:14:23;15.60;1.00
2657;DHT22;1338;48.176;11.792;2023-02-22T14:22:51;17.20;1.00
2657;DHT22;1338;48.176;11.792;2023-02-22T14:25:35;16.20;1.00
2657;DHT22;1338;48.176;11.792;2023-02-22T14:28:06;17.10;1.00
2657;DHT22;1338;48.176;11.792;2023-02-22T14:30:37;17.40;1.00
2657;DHT22;1338;48.176;11.792;2023-02-22T14:36:15;18.00;1.00
2657;DHT22;1338;48.176;11.792;2023-02-22T14:38:45;18.20;1.00
2657;DHT22;1338;48.176;11.792;2023-02-22T14:41:16;19.00;1.00
2657;DHT22;1338;48.176;11.792;2023-02-22T14:43:45;17.00;1.00
2657;DHT22;1338;48.176;11.792;2023-02-22T14:46:21;18.30;1.00
2657;DHT22;1338;48.176;11.792;2023-02-22T14:48:55;19.20;1.00
2657;DHT22;1338;48.176;11.792;2023-02-22T14:51:33;19.60;1.00
2657;DHT22;1338;48.176;11.792;2023-02-22T14:54:11;17.80;1.00
2657;DHT22;1338;48.176;11.792;2023-02-22T14:56:57;18.40;1.00
2657;DHT22;1338;48.176;11.792;2023-02-22T15:02:36;17.10;1.00
2657;DHT22;1338;48.176;11.792;2023-02-22T15:05:12;16.50;1.00
2657;DHT22;1338;48.176;11.792;2023-02-22T15:07:52;17.20;1.00
2657;DHT22;1338;48.176;11.792;2023-02-22T15:10:27;17.40;1.00
2657;DHT22;1338;48.176;11.792;2023-02-22T15:12:59;16.80;1.00
2657;DHT22;1338;48.176;11.792;2023-02-22T15:15:38;16.50;1.00
2657;DHT22;1338;48.176;11.792;2023-02-22T15:18:25;15.90;1.00
2657;DHT22;1338;48.176;11.792;2023-02-22T15:21:01;16.70;1.00
2657;DHT22;1338;48.176;11.792;2023-02-22T15:23:45;16.90;1.00
2657;DHT22;1338;48.176;11.792;2023-02-22T15:26:17;16.80;1.00
2657;DHT22;1338;48.176;11.792;2023-02-22T15:28:52;16.70;1.00
2657;DHT22;1338;48.176;11.792;2023-02-22T15:31:29;16.30;1.00
2657;DHT22;1338;48.176;11.792;2023-02-22T15:34:14;15.90;1.00
2657;DHT22;1338;48.176;11.792;2023-02-22T15:36:51;16.00;1.00
2657;DHT22;1338;48.176;11.792;2023-02-22T15:39:25;15.70;1.00
2657;DHT22;1338;48.176;11.792;2023-02-22T15:42:07;15.70;1.00
2657;DHT22;1338;48.176;11.792;2023-02-22T15:44:41;15.70;1.00
2657;DHT22;1338;48.176;11.792;2023-02-22T15:47:18;15.60;1.00
2657;DHT22;1338;48.176;11.792;2023-02-22T15:50:15;15.40;1.00
2657;DHT22;1338;48.176;11.792;2023-02-22T15:52:50;15.40;1.00
2657;DHT22;1338;48.176;11.792;2023-02-22T15:55:27;15.30;1.00
2657;DHT22;1338;48.176;11.792;2023-02-22T15:58:00;15.30;1.00
2657;DHT22;1338;48.176;11.792;2023-02-22T16:00:37;15.40;1.00
2657;DHT22;1338;48.176;11.792;2023-02-22T16:03:11;15.10;1.00
2657;DHT22;1338;48.176;11.792;2023-02-22T16:05:44;15.20;1.00
2657;DHT22;1338;48.176;11.792;2023-02-22T16:08:15;15.20;1.00
2657;DHT22;1338;48.176;11.792;2023-02-22T16:10:50;15.00;1.00
2657;DHT22;1338;48.176;11.792;2023-02-22T16:13:22;14.80;1.00
2657;DHT22;1338;48.176;11.792;2023-02-22T16:16:00;14.60;1.00
2657;DHT22;1338;48.176;11.792;2023-02-22T16:18:33;14.40;1.00
2657;DHT22;1338;48.176;11.792;2023-02-22T16:21:06;14.30;1.00
2657;DHT22;1338;48.176;11.792;2023-02-22T16:23:45;14.30;1.00
2657;DHT22;1338;48.176;11.792;2023-02-22T16:26:25;14.10;1.00
2657;DHT22;1338;48.176;11.792;2023-02-22T16:28:56;13.50;1.00
2657;DHT22;1338;48.176;11.792;2023-02-22T16:31:28;12.90;1.00
2657;DHT22;1338;48.176;11.792;2023-02-22T16:34:00;12.60;1.00
2657;DHT22;1338;48.176;11.792;2023-02-22T16:36:37;12.50;1.00
2657;DHT22;1338;48.176;11.792;2023-02-22T16:39:07;12.20;1.00
2657;DHT22;1338;48.176;11.792;2023-02-22T16:41:39;11.90;1.00
2657;DHT22;1338;48.176;11.792;2023-02-22T16:44:08;11.80;1.00
2657;DHT22;1338;48.176;11.792;2023-02-22T16:46:38;11.60;1.00
2657;DHT22;1338;48.176;11.792;2023-02-22T16:49:08;11.40;1.00
2657;DHT22;1338;48.176;11.792;2023-02-22T16:51:39;11.30;1.00
2657;DHT22;1338;48.176;11.792;2023-02-22T16:54:10;11.20;1.00
2657;DHT22;1338;48.176;11.792;2023-02-22T16:56:40;11.20;1.00
2657;DHT22;1338;48.176;11.792;2023-02-22T16:59:12;11.20;1.00
2657;DHT22;1338;48.176;11.792;2023-02-22T17:01:41;11.00;1.00
2657;DHT22;1338;48.176;11.792;2023-02-22T17:04:18;10.90;1.00
2657;DHT22;1338;48.176;11.792;2023-02-22T17:06:47;10.80;1.00
2657;DHT22;1338;48.176;11.792;2023-02-22T17:09:15;10.70;1.00
2657;DHT22;1338;48.176;11.792;2023-02-22T17:11:48;10.50;1.00
2657;DHT22;1338;48.176;11.792;2023-02-22T17:14:20;10.40;1.00